Time;durP1;ratioP1;P1;durP2;ratioP2;P2;SDS_P1;SDS_P2;PMS_P1;PMS_P2;Temp;Humidity;BMP_temperature;BMP_pressure;BME280_temperature;BME280_humidity;BME280_pressure;Samples;Min_cycle;Max_cycle;Signal;HPM_P1;HPM_P2
2023/10/21 00:02:17;;;;;;;8.02;6.05;;;;;;;10.31;100.00;98209.16;4955044;28;20556;-81
2023/10/21 00:04:43;;;;;;;8.73;6.03;;;;;;;10.27;100.00;98213.44;4955780;28;20031;-81
2023/10/21 00:07:08;;;;;;;8.45;6.05;;;;;;;10.27;100.00;98213.44;4955748;28;20031;-80
2023/10/21 00:09:34;;;;;;;10.20;6.30;;;;;;;10.24;100.00;98222.84;4937658;28;20544;-81
2023/10/21 00:11:59;;;;;;;9.68;6.40;;;;;;;10.22;100.00;98218.81;4950948;28;20024;-81
2023/10/21 00:14:24;;;;;;;11.70;6.30;;;;;;;10.19;100.00;98222.78;4948243;28;20362;-82
2023/10/21 00:16:50;;;;;;;12.35;6.78;;;;;;;10.19;100.00;98228.19;4947702;28;20035;-81
2023/10/21 00:19:15;;;;;;;11.13;6.38;;;;;;;10.17;100.00;98230.31;4953079;28;20031;-81
2023/10/21 00:21:41;;;;;;;10.93;7.20;;;;;;;10.19;100.00;98232.75;4947727;28;20476;-81
2023/10/21 00:24:06;;;;;;;11.00;6.50;;;;;;;10.14;100.00;98230.84;4952812;28;20031;-81
2023/10/21 00:26:43;;;;;;;11.43;6.82;;;;;;;10.11;100.00;98244.81;4941797;28;20034;-81
2023/10/21 00:29:08;;;;;;;10.95;6.57;;;;;;;10.08;100.00;98251.50;4957419;28;20023;-80
2023/10/21 00:31:33;;;;;;;9.73;6.07;;;;;;;10.07;100.00;98241.00;4959612;28;20058;-79
2023/10/21 00:33:59;;;;;;;10.93;6.57;;;;;;;10.08;100.00;98251.50;4939801;28;20036;-80
2023/10/21 00:36:24;;;;;;;8.73;6.43;;;;;;;10.07;100.00;98257.13;4948177;28;20027;-80
2023/10/21 00:51:42;;;;;;;8.25;5.65;;;;;;;10.10;100.00;98287.00;5788370;23;20117;-81
2023/10/21 00:54:08;;;;;;;9.00;6.10;;;;;;;10.07;100.00;98279.44;4920626;29;20027;-82
2023/10/21 00:56:33;;;;;;;11.13;5.68;;;;;;;10.05;100.00;98286.97;4924933;29;20110;-81
2023/10/21 00:58:59;;;;;;;11.98;5.85;;;;;;;10.04;100.00;98285.34;4952710;28;20050;-81
2023/10/21 01:06:42;;;;;;;6.75;5.03;;;;;;;10.03;100.00;98294.47;5611870;23;20063;-81
2023/10/21 01:09:08;;;;;;;7.13;5.43;;;;;;;10.00;100.00;98297.66;4951802;28;20724;-80
2023/10/21 01:11:33;;;;;;;7.35;5.45;;;;;;;10.00;100.00;98301.16;4951933;28;20027;-80
2023/10/21 01:13:58;;;;;;;8.40;6.20;;;;;;;10.02;100.00;98303.59;4953439;28;20077;-80
2023/10/21 01:16:24;;;;;;;7.32;5.47;;;;;;;10.01;100.00;98300.09;4956939;28;20061;-80
2023/10/21 01:18:49;;;;;;;7.35;5.45;;;;;;;10.05;100.00;98311.16;4956125;28;20110;-80
2023/10/21 01:21:16;;;;;;;9.98;5.40;;;;;;;10.05;100.00;98310.34;4949348;28;20094;-80
2023/10/21 01:23:42;;;;;;;8.75;5.70;;;;;;;10.05;100.00;98311.16;4945142;28;20445;-80
2023/10/21 01:26:08;;;;;;;8.82;5.40;;;;;;;9.99;100.00;98315.66;4952205;28;20031;-80
2023/10/21 01:28:33;;;;;;;7.38;5.18;;;;;;;10.06;100.00;98310.06;4933803;28;20031;-80
2023/10/21 01:30:59;;;;;;;8.10;5.40;;;;;;;10.03;100.00;98313.28;4946239;28;20066;-81
2023/10/21 01:33:27;;;;;;;7.68;4.95;;;;;;;10.03;100.00;98315.97;4944033;28;20114;-80
2023/10/21 01:35:52;;;;;;;6.78;4.80;;;;;;;10.00;100.00;98328.03;4945056;28;20054;-80
2023/10/21 01:38:20;;;;;;;7.25;5.03;;;;;;;9.99;100.00;98320.25;4950097;28;20035;-80
2023/10/21 01:40:46;;;;;;;10.23;5.68;;;;;;;9.92;100.00;98322.31;4952007;28;20027;-81
2023/10/21 01:43:13;;;;;;;7.10;5.15;;;;;;;9.92;100.00;98333.06;4956379;28;20035;-80
2023/10/21 01:45:47;;;;;;;6.43;5.00;;;;;;;9.93;100.00;98330.13;4941421;29;20027;-80
2023/10/21 01:48:13;;;;;;;9.55;5.38;;;;;;;9.90;100.00;98330.66;5432622;23;20013;-81
2023/10/21 01:50:41;;;;;;;6.45;4.70;;;;;;;9.88;100.00;98334.66;4954147;28;20086;-82
2023/10/21 01:58:17;;;;;;;8.73;5.53;;;;;;;9.80;100.00;98335.91;5305676;23;20064;-80
2023/10/21 02:00:43;;;;;;;7.75;5.10;;;;;;;9.78;100.00;98340.75;4912877;29;20410;-80
2023/10/21 02:03:09;;;;;;;9.18;5.40;;;;;;;9.76;100.00;98343.66;4914863;29;20400;-81
2023/10/21 02:05:36;;;;;;;7.93;5.35;;;;;;;9.81;100.00;98350.97;4906606;29;20036;-80
2023/10/21 02:08:01;;;;;;;6.32;5.53;;;;;;;9.82;100.00;98358.78;4896406;29;20036;-80
2023/10/21 02:10:27;;;;;;;7.47;5.20;;;;;;;9.75;100.00;98357.38;4912417;29;20043;-80
2023/10/21 02:12:52;;;;;;;7.18;4.85;;;;;;;9.70;100.00;98352.75;4917219;29;20024;-80
2023/10/21 02:15:17;;;;;;;7.20;5.18;;;;;;;9.67;100.00;98364.00;4903773;29;20033;-80
2023/10/21 02:17:44;;;;;;;7.50;5.25;;;;;;;9.71;100.00;98365.09;4916084;29;20024;-80
2023/10/21 02:20:12;;;;;;;7.20;5.35;;;;;;;9.70;100.00;98368.88;4914176;29;20028;-81
2023/10/21 02:22:40;;;;;;;9.70;5.32;;;;;;;9.73;100.00;98368.34;4916254;29;20036;-80
2023/10/21 02:25:13;;;;;;;10.20;5.65;;;;;;;9.71;100.00;98378.53;4918038;29;20055;-80
2023/10/21 02:27:42;;;;;;;10.40;5.03;;;;;;;9.70;100.00;98383.09;4895102;29;20037;-81
2023/10/21 02:30:14;;;;;;;8.43;5.30;;;;;;;9.69;100.00;98381.47;4914939;29;20032;-81
2023/10/21 02:32:46;;;;;;;8.65;5.45;;;;;;;9.69;100.00;98378.00;4914836;29;20115;-81
2023/10/21 02:35:12;;;;;;;10.18;5.47;;;;;;;9.67;100.00;98386.28;4915747;29;20028;-80
2023/10/21 02:37:38;;;;;;;9.30;5.53;;;;;;;9.65;100.00;98385.72;4918960;29;20385;-80
2023/10/21 02:40:03;;;;;;;11.15;6.25;;;;;;;9.67;100.00;98385.50;4911077;29;20421;-80
2023/10/21 02:42:29;;;;;;;9.90;6.10;;;;;;;9.68;100.00;98385.22;4908549;29;20047;-81
2023/10/21 02:44:54;;;;;;;11.77;6.38;;;;;;;9.73;100.00;98384.47;4904356;29;20385;-80
2023/10/21 02:47:20;;;;;;;7.55;5.90;;;;;;;9.73;100.00;98389.84;4917229;29;20044;-81
2023/10/21 02:49:46;;;;;;;8.48;5.85;;;;;;;9.76;100.00;98391.22;4914792;29;20027;-80
2023/10/21 02:52:11;;;;;;;9.60;6.57;;;;;;;9.75;100.00;98403.84;4917385;29;20032;-81
2023/10/21 02:54:38;;;;;;;11.40;6.25;;;;;;;9.72;100.00;98401.66;4915779;29;20452;-81
2023/10/21 02:57:04;;;;;;;9.15;5.82;;;;;;;9.73;100.00;98408.66;4917007;29;20044;-80
2023/10/21 02:59:30;;;;;;;8.00;5.85;;;;;;;9.75;100.00;98403.84;4913174;29;20123;-81
2023/10/21 03:01:55;;;;;;;12.68;5.90;;;;;;;9.83;100.00;98419.53;4915490;29;20024;-80
2023/10/21 03:04:21;;;;;;;9.98;5.90;;;;;;;9.83;100.00;98414.16;4914053;29;20029;-80
2023/10/21 03:06:46;;;;;;;11.57;6.70;;;;;;;9.83;100.00;98416.84;4914618;29;20098;-80
2023/10/21 03:09:11;;;;;;;8.85;6.45;;;;;;;9.83;100.00;98424.91;4914794;29;20032;-80
2023/10/21 03:11:37;;;;;;;9.25;6.63;;;;;;;9.87;100.00;98414.44;4919780;29;20028;-80
2023/10/21 03:14:02;;;;;;;10.55;7.00;;;;;;;9.88;100.00;98426.03;4898935;29;20028;-80
2023/10/21 03:16:28;;;;;;;9.50;6.90;;;;;;;9.90;100.00;98426.56;4914701;29;20742;-80
2023/10/21 03:18:53;;;;;;;10.85;6.88;;;;;;;9.90;100.00;98435.44;4913422;29;20036;-81
2023/10/21 03:21:19;;;;;;;10.27;7.03;;;;;;;9.95;100.00;98437.38;4914570;29;20039;-81
2023/10/21 03:23:44;;;;;;;7.93;6.53;;;;;;;10.01;100.00;98447.91;4915887;29;20032;-81
2023/10/21 03:26:09;;;;;;;9.10;6.20;;;;;;;10.06;100.00;98443.66;4915332;29;20028;-76
2023/10/21 03:28:35;;;;;;;8.38;6.57;;;;;;;10.05;100.00;98455.47;4914778;29;20028;-77
2023/10/21 03:31:01;;;;;;;8.35;6.03;;;;;;;10.12;100.00;98451.53;4898270;29;20028;-78
2023/10/21 03:33:27;;;;;;;7.10;6.18;;;;;;;10.05;100.00;98452.78;4915843;29;20027;-78
2023/10/21 03:36:04;;;;;;;8.25;6.47;;;;;;;10.01;100.00;98458.69;4915934;29;20027;-78
2023/10/21 03:38:31;;;;;;;9.25;6.30;;;;;;;10.08;100.00;98458.47;4891862;29;20036;-78
2023/10/21 03:41:09;;;;;;;8.90;6.38;;;;;;;10.11;100.00;98457.97;4917677;29;20035;-78
2023/10/21 03:43:34;;;;;;;10.82;6.50;;;;;;;10.10;100.00;98461.72;4912365;29;20042;-78
2023/10/21 03:46:08;;;;;;;9.15;6.45;;;;;;;10.13;100.00;98466.59;4914851;29;20016;-78
2023/10/21 03:48:34;;;;;;;8.63;6.80;;;;;;;10.13;100.00;98466.59;4895939;29;20064;-78
2023/10/21 03:51:07;;;;;;;8.60;6.80;;;;;;;10.18;100.00;98467.72;4916230;29;20138;-78
2023/10/21 03:53:33;;;;;;;8.73;6.57;;;;;;;10.20;100.00;98481.72;4915222;29;20493;-78
2023/10/21 03:55:59;;;;;;;7.90;5.85;;;;;;;10.21;100.00;98483.34;4892701;29;20078;-78
2023/10/21 03:58:24;;;;;;;9.32;6.43;;;;;;;10.30;100.00;98488.03;4950053;23;20638;-78
2023/10/21 04:00:50;;;;;;;9.38;6.00;;;;;;;10.30;100.00;98488.03;4951919;28;20027;-78
2023/10/21 04:03:15;;;;;;;8.70;5.97;;;;;;;10.30;100.00;98496.09;4961523;28;20035;-79
2023/10/21 04:05:42;;;;;;;9.23;6.28;;;;;;;10.29;100.00;98499.03;4944362;28;20035;-78
2023/10/21 04:08:07;;;;;;;7.93;6.03;;;;;;;10.32;100.00;98498.50;4956239;28;20050;-79
2023/10/21 04:10:34;;;;;;;9.25;6.28;;;;;;;10.44;100.00;98509.16;4957113;28;20054;-78
2023/10/21 04:13:01;;;;;;;9.95;5.43;;;;;;;10.44;100.00;98509.97;4953426;28;20062;-79
2023/10/21 04:15:26;;;;;;;8.07;6.32;;;;;;;10.44;100.00;98515.34;4953685;28;20053;-78
2023/10/21 04:17:52;;;;;;;6.00;5.40;;;;;;;10.48;100.00;98512.16;4953073;28;20030;-79
2023/10/21 04:20:17;;;;;;;7.07;5.80;;;;;;;10.49;100.00;98519.97;4952831;28;20110;-79
2023/10/21 04:22:43;;;;;;;9.15;5.80;;;;;;;10.51;100.00;98520.50;4952543;28;20027;-78
2023/10/21 04:25:08;;;;;;;6.60;5.55;;;;;;;10.58;100.00;98533.78;4952279;28;20499;-78
2023/10/21 04:27:34;;;;;;;7.45;5.88;;;;;;;10.65;100.00;98531.69;4967814;28;20027;-79
2023/10/21 04:29:59;;;;;;;7.15;6.00;;;;;;;10.68;100.00;98531.19;4956059;28;20035;-79
2023/10/21 04:32:25;;;;;;;6.10;5.50;;;;;;;10.73;100.00;98527.72;4958744;28;20030;-78
2023/10/21 04:34:50;;;;;;;6.97;5.63;;;;;;;10.75;100.00;98537.19;4964084;28;20039;-78
2023/10/21 04:37:16;;;;;;;6.35;5.53;;;;;;;10.75;100.00;98539.88;4974237;28;20062;-78
2023/10/21 04:39:41;;;;;;;8.27;5.32;;;;;;;10.84;100.00;98547.47;4969569;28;20033;-78
2023/10/21 04:42:06;;;;;;;8.18;5.63;;;;;;;10.84;100.00;98550.16;4953884;28;20387;-78
2023/10/21 04:44:32;;;;;;;6.82;5.43;;;;;;;10.76;100.00;98551.44;4976242;28;20050;-79
2023/10/21 04:47:04;;;;;;;8.50;5.18;;;;;;;10.78;100.00;98560.06;4989807;28;20105;-78
2023/10/21 04:49:32;;;;;;;8.25;5.57;;;;;;;10.77;100.00;98563.81;4985962;28;20022;-78
2023/10/21 04:51:59;;;;;;;5.70;5.10;;;;;;;10.80;100.00;98565.19;4958665;28;20035;-79
2023/10/21 04:54:25;;;;;;;7.47;5.80;;;;;;;10.82;100.00;98569.25;4961194;28;20035;-78
2023/10/21 04:56:51;;;;;;;6.95;5.60;;;;;;;10.90;100.00;98570.66;4963829;28;20113;-78
2023/10/21 04:59:16;;;;;;;7.75;5.47;;;;;;;10.98;100.00;98572.88;4962657;28;20122;-78
2023/10/21 05:01:42;;;;;;;5.93;5.32;;;;;;;10.99;100.00;98577.19;4948976;28;20118;-78
2023/10/21 05:04:09;;;;;;;5.95;5.00;;;;;;;11.05;100.00;98589.66;4952159;28;20035;-77
2023/10/21 05:06:36;;;;;;;7.03;5.45;;;;;;;11.13;100.00;98592.91;4958732;28;20127;-78
2023/10/21 05:09:03;;;;;;;7.10;5.65;;;;;;;11.18;100.00;98599.19;4951697;28;20041;-78
2023/10/21 05:11:28;;;;;;;5.72;5.10;;;;;;;11.27;100.00;98601.41;4960054;28;20023;-78
2023/10/21 05:13:53;;;;;;;5.30;4.80;;;;;;;11.31;100.00;98603.31;4954698;28;20387;-79
2023/10/21 05:16:19;;;;;;;7.30;5.50;;;;;;;11.33;100.00;98601.16;4960655;28;20082;-78
2023/10/21 05:18:44;;;;;;;6.57;5.25;;;;;;;11.33;100.00;98621.91;4957599;28;20387;-78
2023/10/21 05:21:10;;;;;;;6.30;5.47;;;;;;;11.40;100.00;98625.19;4950649;28;20081;-79
2023/10/21 05:23:38;;;;;;;7.18;5.53;;;;;;;11.47;100.00;98633.09;4971839;23;20050;-78
2023/10/21 05:26:04;;;;;;;6.20;5.05;;;;;;;11.48;100.00;98635.50;4963640;28;20102;-78
2023/10/21 05:28:29;;;;;;;7.45;5.78;;;;;;;11.49;100.00;98636.31;4964297;28;20061;-79
2023/10/21 05:30:54;;;;;;;6.25;5.20;;;;;;;11.50;100.00;98641.47;4971078;28;20031;-78
2023/10/21 05:33:20;;;;;;;5.85;5.18;;;;;;;11.57;100.00;98638.53;4967259;28;20022;-78
2023/10/21 05:35:45;;;;;;;5.82;5.32;;;;;;;11.67;100.00;98659.38;4971034;28;20100;-78
2023/10/21 05:38:11;;;;;;;5.95;4.90;;;;;;;11.67;100.00;98656.66;4970439;28;20030;-77
2023/10/21 05:40:37;;;;;;;8.20;4.95;;;;;;;11.74;100.00;98661.84;4970541;28;20049;-79
2023/10/21 05:43:08;;;;;;;5.40;4.90;;;;;;;11.69;100.00;98662.63;4972461;28;20027;-80
2023/10/21 05:45:34;;;;;;;5.63;5.00;;;;;;;11.65;100.00;98662.31;4969898;28;20031;-80
2023/10/21 05:48:00;;;;;;;5.43;4.93;;;;;;;11.62;100.00;98676.31;4969077;28;20031;-80
2023/10/21 05:50:27;;;;;;;6.05;4.97;;;;;;;11.58;100.00;98672.50;4978172;28;20037;-80
2023/10/21 05:52:52;;;;;;;6.35;5.05;;;;;;;11.52;100.00;98687.81;4979172;28;20030;-80
2023/10/21 05:55:18;;;;;;;7.65;5.30;;;;;;;11.43;100.00;98692.03;4974064;28;20034;-80
2023/10/21 05:57:44;;;;;;;7.43;4.97;;;;;;;11.37;100.00;98688.50;4976965;28;20035;-80
2023/10/21 06:00:10;;;;;;;6.68;5.10;;;;;;;11.36;100.00;98684.16;4975557;28;20092;-81
2023/10/21 06:02:35;;;;;;;8.65;5.55;;;;;;;11.23;100.00;98689.97;4969454;28;20057;-80
2023/10/21 06:05:01;;;;;;;6.22;5.03;;;;;;;11.19;100.00;98700.47;4963528;28;20031;-80
2023/10/21 06:07:27;;;;;;;7.57;5.50;;;;;;;11.17;100.00;98705.28;4969734;28;20034;-80
2023/10/21 06:09:53;;;;;;;7.03;5.70;;;;;;;11.11;100.00;98711.66;4953818;28;20126;-80
2023/10/21 06:12:18;;;;;;;6.15;5.13;;;;;;;11.09;100.00;98713.00;4976353;28;20054;-80
2023/10/21 06:17:27;;;;;;;6.13;5.30;;;;;;;11.11;100.00;98717.06;4982392;23;20543;-81
2023/10/21 06:26:48;;;;;;;9.80;5.55;;;;;;;11.11;100.00;98738.59;4977928;28;20054;-78
2023/10/21 06:32:39;;;;;;;5.97;4.97;;;;;;;11.22;100.00;98750.28;5000091;28;20125;-80
2023/10/21 06:35:58;;;;;;;6.50;5.45;;;;;;;11.44;100.00;98761.03;4976574;28;20042;-81
2023/10/21 06:38:39;;;;;;;9.23;5.03;;;;;;;12.02;100.00;98763.19;4932439;28;20051;-81
2023/10/21 06:57:47;;;;;;;5.70;2.88;;;;;;;15.31;100.00;98807.19;5079328;23;20075;-80
2023/10/21 07:00:13;;;;;;;5.00;2.85;;;;;;;15.57;99.62;98804.31;4915248;29;20377;-77
2023/10/21 07:02:55;;;;;;;3.35;2.85;;;;;;;16.28;97.24;98811.44;4915073;29;20032;-79
2023/10/21 07:05:22;;;;;;;4.82;2.80;;;;;;;16.41;89.40;98818.09;5051443;23;20051;-78
2023/10/21 07:07:47;;;;;;;4.57;2.60;;;;;;;16.40;92.23;98811.06;4932267;29;20035;-78
2023/10/21 07:10:33;;;;;;;5.30;2.35;;;;;;;17.00;88.41;98818.88;4934305;29;20039;-78
2023/10/21 07:12:59;;;;;;;3.90;2.50;;;;;;;17.43;85.57;98827.03;4923480;29;20024;-78
2023/10/21 07:15:31;;;;;;;4.90;2.30;;;;;;;17.61;84.72;98824.63;4931956;29;20047;-78
2023/10/21 07:17:57;;;;;;;3.10;2.10;;;;;;;18.19;81.79;98836.28;4930501;29;20043;-78
2023/10/21 07:20:23;;;;;;;6.60;2.30;;;;;;;18.04;79.49;98842.81;4929122;29;20030;-78
2023/10/21 07:22:49;;;;;;;3.90;2.35;;;;;;;17.54;82.00;98835.88;4933726;29;20416;-78
2023/10/21 07:25:15;;;;;;;5.43;2.28;;;;;;;17.28;81.52;98849.81;4934011;29;20024;-78
2023/10/21 07:27:50;;;;;;;3.35;2.10;;;;;;;16.78;84.93;98849.25;4935134;29;20068;-78
2023/10/21 07:30:15;;;;;;;4.05;2.20;;;;;;;16.11;88.95;98850.66;4932537;29;20028;-76
2023/10/21 07:32:41;;;;;;;3.42;2.42;;;;;;;15.37;93.88;98853.22;4924472;29;20030;-78
2023/10/21 07:35:07;;;;;;;5.57;2.45;;;;;;;15.14;97.37;98855.50;4920824;29;20024;-77
2023/10/21 07:37:37;;;;;;;3.45;2.15;;;;;;;14.81;100.00;98858.56;4916876;29;20032;-77
2023/10/21 07:40:05;;;;;;;3.85;2.20;;;;;;;14.73;100.00;98863.75;4934079;29;20024;-79
2023/10/21 07:42:30;;;;;;;3.60;2.30;;;;;;;14.76;100.00;98869.41;4934750;29;20400;-77
2023/10/21 07:44:59;;;;;;;3.72;2.38;;;;;;;14.54;100.00;98883.22;5033283;23;20059;-78
2023/10/21 07:47:25;;;;;;;3.40;2.13;;;;;;;14.18;100.00;98881.34;4932718;29;20035;-79
2023/10/21 07:49:51;;;;;;;3.13;2.30;;;;;;;13.89;100.00;98892.66;4933552;29;20070;-77
2023/10/21 07:52:16;;;;;;;3.13;1.98;;;;;;;13.60;100.00;98887.72;4933785;29;20043;-77
2023/10/21 07:54:42;;;;;;;3.67;2.05;;;;;;;13.42;100.00;98901.69;4929060;29;20039;-77
2023/10/21 07:57:08;;;;;;;6.05;2.10;;;;;;;13.14;100.00;98901.81;4934512;29;20028;-77
2023/10/21 07:59:34;;;;;;;3.25;2.35;;;;;;;12.97;100.00;98903.88;4932428;29;20107;-78
2023/10/21 08:02:00;;;;;;;3.42;2.20;;;;;;;12.79;100.00;98907.81;4933756;29;20028;-78
2023/10/21 08:04:25;;;;;;;5.47;2.40;;;;;;;12.73;100.00;98915.06;4932631;29;20387;-78
2023/10/21 08:06:50;;;;;;;2.08;1.80;;;;;;;12.66;100.00;98903.69;4933892;29;20027;-78
2023/10/21 08:12:39;;;;;;;1.70;1.40;;;;;;;12.55;100.00;98921.69;4968854;23;20073;-80
2023/10/21 08:15:08;;;;;;;2.33;1.30;;;;;;;12.54;100.00;98931.66;4951628;28;20031;-81
2023/10/21 08:17:34;;;;;;;1.95;1.35;;;;;;;12.50;100.00;98935.94;4948742;28;20329;-80
2023/10/21 08:19:59;;;;;;;1.75;1.17;;;;;;;12.47;100.00;98944.56;4951646;28;20039;-80
2023/10/21 08:22:25;;;;;;;2.03;1.40;;;;;;;12.42;100.00;98955.28;4934489;29;20110;-81
2023/10/21 08:27:57;;;;;;;1.40;1.30;;;;;;;12.52;100.00;98951.88;4920553;29;20607;-79
2023/10/21 08:30:44;;;;;;;1.95;1.40;;;;;;;12.63;100.00;98958.97;4951671;28;20039;-80
2023/10/21 08:33:10;;;;;;;1.60;1.50;;;;;;;12.77;100.00;98956.66;4952736;28;20035;-81
2023/10/21 08:35:35;;;;;;;2.00;1.42;;;;;;;12.79;100.00;98964.53;4952235;28;20395;-81
2023/10/21 08:38:00;;;;;;;1.65;1.50;;;;;;;12.81;100.00;98960.50;4951578;29;20110;-81
2023/10/21 08:40:59;;;;;;;1.90;1.70;;;;;;;12.87;100.00;98974.84;4976732;23;20055;-80
2023/10/21 08:46:49;;;;;;;1.70;1.20;;;;;;;12.78;100.00;98984.50;4952024;28;20054;-79
2023/10/21 08:49:36;;;;;;;3.53;1.27;;;;;;;12.75;100.00;98988.50;5028199;23;20067;-79
2023/10/21 08:52:51;;;;;;;2.55;1.17;;;;;;;12.87;100.00;99010.78;4879261;29;20080;-80
2023/10/21 08:56:11;;;;;;;1.23;1.13;;;;;;;13.06;100.00;98996.84;4915665;29;20028;-80
2023/10/21 08:58:37;;;;;;;2.60;0.98;;;;;;;13.10;100.00;99006.06;4908422;29;20047;-79
2023/10/21 09:01:06;;;;;;;1.15;1.05;;;;;;;13.15;100.00;99010.69;4892169;29;20039;-79
2023/10/21 09:04:08;;;;;;;1.58;1.00;;;;;;;13.46;100.00;99014.44;4914204;29;20046;-79
2023/10/21 09:06:59;;;;;;;1.00;0.80;;;;;;;13.74;100.00;99017.84;4899873;29;20103;-79
2023/10/21 09:09:50;;;;;;;1.50;0.80;;;;;;;13.90;100.00;99024.09;4909114;29;20046;-79
2023/10/21 09:12:17;;;;;;;1.00;0.70;;;;;;;14.16;100.00;99031.50;4910470;29;20051;-79
2023/10/21 09:14:56;;;;;;;0.63;0.63;;;;;;;14.31;98.73;99036.97;4912833;29;20055;-79
2023/10/21 09:17:59;;;;;;;1.20;0.60;;;;;;;14.37;98.78;99052.16;4915033;29;20040;-79
2023/10/21 09:20:58;;;;;;;0.60;0.60;;;;;;;14.35;95.21;99046.19;4895268;29;20486;-79
2023/10/21 09:24:13;;;;;;;0.60;0.60;;;;;;;14.32;95.73;99054.84;4914083;29;20032;-79
2023/10/21 09:29:48;;;;;;;0.55;0.50;;;;;;;14.32;96.17;99068.38;4938761;23;20089;-81
2023/10/21 09:32:46;;;;;;;;;;;;;;;;;;;;;
2023/10/21 09:39:04;;;;;;;0.70;0.70;;;;;;;13.58;99.69;99089.94;4879201;29;20139;-79
2023/10/21 09:44:38;;;;;;;1.05;0.70;;;;;;;13.17;100.00;99090.41;4884087;29;20019;-78
2023/10/21 09:47:07;;;;;;;4.97;1.00;;;;;;;12.94;100.00;99090.75;5193595;23;20051;-82
2023/10/21 09:49:39;;;;;;;1.27;0.68;;;;;;;12.81;100.00;99097.38;4938214;28;20028;-81
2023/10/21 09:52:07;;;;;;;1.08;0.82;;;;;;;12.76;100.00;99103.53;4957332;28;20126;-80
2023/10/21 10:07:15;;;;;;;1.13;0.77;;;;;;;14.36;93.73;99114.69;4947260;28;20050;-83
2023/10/21 10:16:37;;;;;;;1.60;0.85;;;;;;;14.56;90.33;99136.41;4879914;29;20301;-84
2023/10/21 10:19:16;;;;;;;0.93;0.68;;;;;;;14.73;86.05;99124.59;4882679;29;20109;-83
2023/10/21 10:21:52;;;;;;;1.02;0.80;;;;;;;14.78;84.89;99115.66;4932205;23;20051;-81
2023/10/21 10:27:59;;;;;;;2.30;0.75;;;;;;;14.84;81.46;99136.22;4960296;28;20163;-83
2023/10/21 10:31:05;;;;;;;1.08;0.77;;;;;;;14.98;79.46;99140.06;4959456;28;20027;-82
2023/10/21 10:33:38;;;;;;;0.88;0.77;;;;;;;15.10;79.19;99145.22;4957529;28;20035;-81
2023/10/21 10:36:19;;;;;;;1.00;0.73;;;;;;;14.92;80.66;99143.84;4950004;28;20057;-83
2023/10/21 10:38:45;;;;;;;1.55;0.80;;;;;;;14.97;80.06;99154.69;4955098;28;20031;-80
2023/10/21 10:42:02;;;;;;;0.93;0.80;;;;;;;14.94;79.60;99162.53;4949897;28;20030;-82
2023/10/21 10:45:06;;;;;;;1.90;0.90;;;;;;;14.87;80.57;99156.56;4956510;28;20054;-82
2023/10/21 10:47:32;;;;;;;2.72;0.90;;;;;;;14.75;81.03;99154.91;4873941;29;20107;-83
2023/10/21 10:49:58;;;;;;;2.03;1.08;;;;;;;14.83;82.28;99167.94;4884125;28;20376;-83
2023/10/21 10:52:36;;;;;;;3.90;1.27;;;;;;;14.90;79.06;99166.88;4970359;28;20472;-84
2023/10/21 10:55:11;;;;;;;1.63;1.20;;;;;;;15.05;80.17;99169.63;4971175;28;20468;-82
2023/10/21 10:57:40;;;;;;;2.63;1.52;;;;;;;15.01;80.10;99184.78;4951626;28;20031;-83
2023/10/21 11:00:10;;;;;;;1.52;1.40;;;;;;;15.22;77.75;99177.50;4935992;29;20471;-83
2023/10/21 11:02:51;;;;;;;1.55;1.30;;;;;;;15.21;77.39;99173.16;4949482;29;20031;-83
2023/10/21 11:05:37;;;;;;;2.55;1.48;;;;;;;15.62;73.09;99188.63;4949258;28;20042;-83
2023/10/21 11:08:07;;;;;;;1.52;1.40;;;;;;;15.52;73.56;99189.47;4949161;29;20074;-83
2023/10/21 11:10:44;;;;;;;2.20;1.10;;;;;;;15.96;70.56;99192.72;4927843;29;20448;-83
2023/10/21 11:13:18;;;;;;;2.50;1.13;;;;;;;17.04;64.54;99181.47;4948029;28;20733;-83
2023/10/21 11:16:05;;;;;;;2.03;1.13;;;;;;;16.95;64.54;99191.28;4938091;29;20035;-83
2023/10/21 11:18:30;;;;;;;2.72;0.93;;;;;;;16.53;65.70;99193.38;4945784;28;20024;-83
2023/10/21 11:21:50;;;;;;;2.42;1.02;;;;;;;16.03;66.68;99220.38;4954696;28;20514;-83
2023/10/21 11:25:20;;;;;;;2.15;0.88;;;;;;;15.51;68.57;99209.53;4963521;28;20049;-82
2023/10/21 11:27:46;;;;;;;3.40;1.10;;;;;;;15.50;70.75;99217.91;4952398;28;20403;-83
2023/10/21 11:30:11;;;;;;;2.50;1.00;;;;;;;15.51;69.44;99214.13;4943823;28;20023;-84
2023/10/21 11:32:38;;;;;;;1.10;1.00;;;;;;;15.76;69.42;99221.44;4953342;28;20027;-82
2023/10/21 11:35:05;;;;;;;2.42;1.00;;;;;;;15.60;67.80;99213.31;4953995;28;20039;-82
2023/10/21 11:37:30;;;;;;;3.58;1.30;;;;;;;15.53;70.07;99223.59;4965410;28;20039;-82
2023/10/21 11:40:09;;;;;;;2.67;1.17;;;;;;;15.30;68.77;99208.69;4953285;28;20031;-82
2023/10/21 11:42:57;;;;;;;1.95;1.15;;;;;;;15.15;71.21;99229.25;4952938;28;20042;-82
2023/10/21 11:45:35;;;;;;;1.63;1.30;;;;;;;15.01;70.92;99212.69;4954745;28;20763;-83
2023/10/21 11:48:08;;;;;;;3.80;1.58;;;;;;;15.21;72.15;99224.66;4954015;29;20051;-82
2023/10/21 11:50:38;;;;;;;2.50;1.50;;;;;;;15.86;72.09;99232.34;4935699;29;20035;-82
2023/10/21 11:53:07;;;;;;;3.17;1.30;;;;;;;16.46;67.97;99223.53;4935996;29;20102;-81
2023/10/21 12:19:45;;;;;;;2.72;0.82;;;;;;;19.41;57.25;99251.00;4921160;29;20035;-85
2023/10/21 12:28:13;;;;;;;2.10;0.93;;;;;;;21.04;49.47;99241.31;4955498;29;20452;-86
2023/10/21 12:33:20;;;;;;;1.90;0.88;;;;;;;20.93;50.14;99237.97;4953842;29;20431;-83
2023/10/21 12:42:21;;;;;;;2.15;0.90;;;;;;;19.64;51.02;99226.63;4955432;29;20074;-85
2023/10/21 12:45:12;;;;;;;2.25;0.85;;;;;;;19.41;52.94;99234.63;4935363;29;20047;-88
2023/10/21 12:48:08;;;;;;;3.90;0.90;;;;;;;20.37;50.51;99239.88;4928958;29;20059;-86
2023/10/21 12:50:34;;;;;;;1.40;0.90;;;;;;;21.00;48.41;99237.56;4951721;29;20036;-85
2023/10/21 12:56:38;;;;;;;2.00;0.75;;;;;;;20.89;43.33;99248.72;5268237;23;20577;-84
2023/10/21 12:59:20;;;;;;;4.53;1.00;;;;;;;19.72;45.95;99247.81;4913750;29;20131;-82
2023/10/21 13:19:13;;;;;;;2.38;0.98;;;;;;;19.84;48.36;99247.34;5111211;23;20063;-83
2023/10/21 13:21:54;;;;;;;2.67;1.08;;;;;;;20.39;45.30;99240.38;4941380;29;20019;-84
2023/10/21 13:24:40;;;;;;;2.22;1.30;;;;;;;20.59;46.53;99255.59;4931526;29;20027;-84
2023/10/21 13:27:05;;;;;;;3.88;1.25;;;;;;;20.67;45.27;99260.34;4910981;29;20484;-83
2023/10/21 13:40:54;;;;;;;4.20;1.40;;;;;;;18.08;48.24;99256.91;5744633;23;20082;-82
2023/10/21 13:43:58;;;;;;;3.28;1.10;;;;;;;17.63;49.13;99243.34;4949665;28;20027;-83
2023/10/21 13:46:42;;;;;;;4.05;1.40;;;;;;;18.06;49.25;99253.66;4945933;28;20050;-84
2023/10/21 13:49:42;;;;;;;6.13;1.55;;;;;;;17.73;50.40;99270.50;4924082;29;20052;-84
2023/10/21 13:59:13;;;;;;;3.78;1.30;;;;;;;16.61;55.85;99278.91;4951133;29;20043;-85
2023/10/21 14:01:41;;;;;;;3.55;1.10;;;;;;;16.56;57.97;99271.59;4952822;29;20071;-87
2023/10/21 14:05:08;;;;;;;;;;;;;;;;;;;;;
2023/10/21 14:10:09;;;;;;;5.30;1.40;;;;;;;16.45;58.41;99280.88;5914493;23;20018;-85
2023/10/21 14:12:48;;;;;;;4.55;1.25;;;;;;;16.24;60.32;99280.91;4934938;29;20290;-87
2023/10/21 14:15:36;;;;;;;5.65;1.40;;;;;;;16.08;61.72;99288.22;4956225;28;20554;-86
2023/10/21 14:18:11;;;;;;;4.00;1.40;;;;;;;15.81;61.78;99291.19;4962473;28;20500;-87
2023/10/21 14:20:40;;;;;;;3.25;1.30;;;;;;;15.66;62.29;99292.00;4950301;28;20031;-87
2023/10/21 14:23:16;;;;;;;5.55;1.50;;;;;;;15.54;62.59;99295.75;4951804;29;20681;-85
2023/10/21 14:25:43;;;;;;;4.05;1.33;;;;;;;15.43;64.04;99299.53;4952902;29;20027;-88
2023/10/21 14:28:40;;;;;;;4.03;1.42;;;;;;;15.43;63.92;99310.38;4953284;29;20027;-86
2023/10/21 14:31:06;;;;;;;5.13;1.10;;;;;;;15.21;63.88;99302.47;4954084;28;20130;-86
2023/10/21 14:33:37;;;;;;;5.13;1.52;;;;;;;15.15;63.85;99305.16;4940316;29;20031;-85
2023/10/21 14:36:06;;;;;;;6.20;1.38;;;;;;;15.10;64.46;99307.03;4955883;29;20042;-87
2023/10/21 14:44:41;;;;;;;5.30;1.13;;;;;;;14.82;65.25;99309.09;4963760;23;20547;-85
2023/10/21 14:47:06;;;;;;;5.63;1.40;;;;;;;14.85;64.89;99305.81;4954832;29;20062;-86
2023/10/21 14:50:03;;;;;;;5.03;1.30;;;;;;;14.90;64.56;99313.19;4953887;29;20031;-85
2023/10/21 14:52:34;;;;;;;6.00;1.25;;;;;;;14.89;64.08;99323.19;4947967;29;20042;-86
2023/10/21 14:55:00;;;;;;;5.47;1.42;;;;;;;14.88;66.20;99316.13;4954820;29;20430;-87